sensor_id;sensor_type;location;lat;lon;timestamp;pressure;altitude;pressure_sealevel;temperature;humidity
19777;BME280;10047;42.490;26.012;2023-01-19T00:01:10;99609.66;;;14.06;100.00
19777;BME280;10047;42.490;26.012;2023-01-19T00:03:36;99601.53;;;13.98;100.00
19777;BME280;10047;42.490;26.012;2023-01-19T00:06:06;99602.19;;;14.01;100.00
19777;BME280;10047;42.490;26.012;2023-01-19T00:08:31;99601.78;;;14.10;100.00
19777;BME280;10047;42.490;26.012;2023-01-19T00:10:57;99604.09;;;14.15;100.00
19777;BME280;10047;42.490;26.012;2023-01-19T00:13:22;99542.31;;;13.71;100.00
19777;BME280;10047;42.490;26.012;2023-01-19T00:15:48;99516.69;;;13.55;100.00
19777;BME280;10047;42.490;26.012;2023-01-19T00:18:13;99616.69;;;14.01;100.00
19777;BME280;10047;42.490;26.012;2023-01-19T00:20:39;99558.50;;;13.71;100.00
19777;BME280;10047;42.490;26.012;2023-01-19T00:23:05;99633.53;;;14.05;100.00
19777;BME280;10047;42.490;26.012;2023-01-19T00:25:32;99612.72;;;13.95;100.00
19777;BME280;10047;42.490;26.012;2023-01-19T00:27:58;99623.72;;;14.14;100.00
19777;BME280;10047;42.490;26.012;2023-01-19T00:30:24;99629.56;;;13.99;100.00
19777;BME280;10047;42.490;26.012;2023-01-19T00:32:49;99625.13;;;14.03;100.00
19777;BME280;10047;42.490;26.012;2023-01-19T00:35:15;99610.22;;;13.93;100.00
19777;BME280;10047;42.490;26.012;2023-01-19T00:37:40;99637.31;;;13.98;100.00
19777;BME280;10047;42.490;26.012;2023-01-19T00:40:11;99640.28;;;13.88;100.00
19777;BME280;10047;42.490;26.012;2023-01-19T00:42:36;99604.34;;;13.74;100.00
19777;BME280;10047;42.490;26.012;2023-01-19T00:45:06;99574.38;;;13.59;100.00
19777;BME280;10047;42.490;26.012;2023-01-19T00:47:32;99612.81;;;13.75;100.00
19777;BME280;10047;42.490;26.012;2023-01-19T00:49:57;99664.16;;;14.06;100.00
19777;BME280;10047;42.490;26.012;2023-01-19T00:52:23;99655.94;;;14.00;100.00
19777;BME280;10047;42.490;26.012;2023-01-19T00:54:48;99643.66;;;13.89;100.00
19777;BME280;10047;42.490;26.012;2023-01-19T00:57:15;99651.69;;;13.81;100.00
19777;BME280;10047;42.490;26.012;2023-01-19T00:59:40;99636.16;;;13.67;100.00
19777;BME280;10047;42.490;26.012;2023-01-19T01:02:06;99625.34;;;13.62;100.00
19777;BME280;10047;42.490;26.012;2023-01-19T01:04:31;99647.50;;;13.62;100.00
19777;BME280;10047;42.490;26.012;2023-01-19T01:06:57;99603.13;;;13.27;100.00
19777;BME280;10047;42.490;26.012;2023-01-19T01:09:22;99654.59;;;13.55;100.00
19777;BME280;10047;42.490;26.012;2023-01-19T01:11:48;99682.63;;;13.57;100.00
19777;BME280;10047;42.490;26.012;2023-01-19T01:14:14;99659.31;;;13.46;100.00
19777;BME280;10047;42.490;26.012;2023-01-19T01:16:40;99639.34;;;13.35;100.00
19777;BME280;10047;42.490;26.012;2023-01-19T01:19:05;99671.19;;;13.65;100.00
19777;BME280;10047;42.490;26.012;2023-01-19T01:21:30;99571.97;;;13.00;100.00
19777;BME280;10047;42.490;26.012;2023-01-19T01:23:58;99675.19;;;13.52;100.00
19777;BME280;10047;42.490;26.012;2023-01-19T01:26:24;99671.28;;;13.25;100.00
19777;BME280;10047;42.490;26.012;2023-01-19T01:28:49;99669.47;;;13.09;100.00
19777;BME280;10047;42.490;26.012;2023-01-19T01:31:15;99641.91;;;12.96;100.00
19777;BME280;10047;42.490;26.012;2023-01-19T01:33:40;99605.09;;;12.63;100.00
19777;BME280;10047;42.490;26.012;2023-01-19T01:36:06;99688.94;;;13.11;100.00
19777;BME280;10047;42.490;26.012;2023-01-19T01:38:31;99654.34;;;13.04;100.00
19777;BME280;10047;42.490;26.012;2023-01-19T01:40:57;99675.84;;;13.19;100.00
19777;BME280;10047;42.490;26.012;2023-01-19T01:43:22;99675.44;;;13.09;100.00
19777;BME280;10047;42.490;26.012;2023-01-19T01:45:48;99671.88;;;13.12;100.00
19777;BME280;10047;42.490;26.012;2023-01-19T01:48:26;99674.72;;;12.85;100.00
19777;BME280;10047;42.490;26.012;2023-01-19T01:50:59;99675.53;;;12.86;100.00
19777;BME280;10047;42.490;26.012;2023-01-19T01:53:45;99690.19;;;13.01;100.00
19777;BME280;10047;42.490;26.012;2023-01-19T01:56:16;99695.16;;;12.84;100.00
19777;BME280;10047;42.490;26.012;2023-01-19T01:58:49;99676.88;;;12.94;100.00
19777;BME280;10047;42.490;26.012;2023-01-19T02:01:15;99683.03;;;13.29;100.00
19777;BME280;10047;42.490;26.012;2023-01-19T02:03:59;99656.25;;;13.38;100.00
19777;BME280;10047;42.490;26.012;2023-01-19T02:06:25;99669.25;;;13.52;100.00
19777;BME280;10047;42.490;26.012;2023-01-19T02:08:58;99666.81;;;13.67;100.00
19777;BME280;10047;42.490;26.012;2023-01-19T02:11:46;99675.94;;;13.73;100.00
19777;BME280;10047;42.490;26.012;2023-01-19T02:14:30;99667.03;;;13.81;100.00
19777;BME280;10047;42.490;26.012;2023-01-19T02:16:55;99602.84;;;13.52;100.00
19777;BME280;10047;42.490;26.012;2023-01-19T02:19:24;99678.97;;;13.81;100.00
19777;BME280;10047;42.490;26.012;2023-01-19T02:24:32;99669.31;;;13.69;100.00
19777;BME280;10047;42.490;26.012;2023-01-19T02:26:59;99660.78;;;13.87;100.00
19777;BME280;10047;42.490;26.012;2023-01-19T02:29:25;99599.22;;;13.39;100.00
19777;BME280;10047;42.490;26.012;2023-01-19T02:31:52;99607.63;;;13.41;100.00
19777;BME280;10047;42.490;26.012;2023-01-19T02:34:20;99678.56;;;13.90;100.00
19777;BME280;10047;42.490;26.012;2023-01-19T02:37:01;99615.81;;;13.47;100.00
19777;BME280;10047;42.490;26.012;2023-01-19T02:39:36;99535.75;;;13.13;100.00
19777;BME280;10047;42.490;26.012;2023-01-19T02:42:07;99657.41;;;13.86;100.00
19777;BME280;10047;42.490;26.012;2023-01-19T02:44:34;99609.03;;;13.65;100.00
19777;BME280;10047;42.490;26.012;2023-01-19T02:47:02;99666.06;;;13.84;100.00
19777;BME280;10047;42.490;26.012;2023-01-19T02:49:28;99676.13;;;13.87;100.00
19777;BME280;10047;42.490;26.012;2023-01-19T02:51:57;99684.03;;;13.82;100.00
19777;BME280;10047;42.490;26.012;2023-01-19T03:12:53;99692.56;;;13.81;100.00
19777;BME280;10047;42.490;26.012;2023-01-19T03:15:28;99705.97;;;13.86;100.00
19777;BME280;10047;42.490;26.012;2023-01-19T03:17:59;99701.00;;;13.83;100.00
19777;BME280;10047;42.490;26.012;2023-01-19T03:20:26;99649.72;;;13.51;100.00
19777;BME280;10047;42.490;26.012;2023-01-19T03:23:04;99640.19;;;13.36;100.00
19777;BME280;10047;42.490;26.012;2023-01-19T03:25:34;99710.50;;;13.99;100.00
19777;BME280;10047;42.490;26.012;2023-01-19T03:28:02;99694.94;;;13.67;100.00
19777;BME280;10047;42.490;26.012;2023-01-19T03:30:31;99647.09;;;13.34;100.00
19777;BME280;10047;42.490;26.012;2023-01-19T03:33:03;99637.69;;;13.16;100.00
19777;BME280;10047;42.490;26.012;2023-01-19T03:35:34;99687.97;;;13.52;100.00
19777;BME280;10047;42.490;26.012;2023-01-19T03:38:05;99711.38;;;13.80;100.00
19777;BME280;10047;42.490;26.012;2023-01-19T03:40:33;99689.47;;;13.56;100.00
19777;BME280;10047;42.490;26.012;2023-01-19T03:43:03;99719.09;;;13.79;100.00
19777;BME280;10047;42.490;26.012;2023-01-19T03:45:31;99662.81;;;13.25;100.00
19777;BME280;10047;42.490;26.012;2023-01-19T03:47:58;99666.69;;;13.52;100.00
19777;BME280;10047;42.490;26.012;2023-01-19T03:50:26;99730.69;;;13.86;100.00
19777;BME280;10047;42.490;26.012;2023-01-19T03:53:07;99655.28;;;13.22;100.00
19777;BME280;10047;42.490;26.012;2023-01-19T03:55:34;99730.88;;;13.63;100.00
19777;BME280;10047;42.490;26.012;2023-01-19T03:58:00;99726.34;;;13.51;100.00
19777;BME280;10047;42.490;26.012;2023-01-19T04:00:25;99669.44;;;13.47;100.00
19777;BME280;10047;42.490;26.012;2023-01-19T04:02:51;99692.03;;;13.75;100.00
19777;BME280;10047;42.490;26.012;2023-01-19T04:05:16;99713.75;;;13.65;100.00
19777;BME280;10047;42.490;26.012;2023-01-19T04:07:43;99731.75;;;13.82;100.00
19777;BME280;10047;42.490;26.012;2023-01-19T04:10:09;99740.38;;;13.79;100.00
19777;BME280;10047;42.490;26.012;2023-01-19T04:12:38;99681.59;;;13.42;100.00
19777;BME280;10047;42.490;26.012;2023-01-19T04:15:05;99745.72;;;13.55;100.00
19777;BME280;10047;42.490;26.012;2023-01-19T04:17:31;99735.56;;;13.53;100.00
19777;BME280;10047;42.490;26.012;2023-01-19T04:19:56;99738.28;;;13.50;100.00
19777;BME280;10047;42.490;26.012;2023-01-19T04:22:22;99742.59;;;13.68;100.00
19777;BME280;10047;42.490;26.012;2023-01-19T04:24:47;99730.06;;;13.62;100.00
19777;BME280;10047;42.490;26.012;2023-01-19T04:27:12;99662.66;;;13.28;100.00
19777;BME280;10047;42.490;26.012;2023-01-19T04:29:40;99750.47;;;13.82;100.00
19777;BME280;10047;42.490;26.012;2023-01-19T04:32:06;99653.38;;;13.27;100.00
19777;BME280;10047;42.490;26.012;2023-01-19T04:34:31;99745.19;;;13.67;100.00
19777;BME280;10047;42.490;26.012;2023-01-19T04:36:57;99681.22;;;13.31;100.00
19777;BME280;10047;42.490;26.012;2023-01-19T04:39:22;99746.09;;;13.84;100.00
19777;BME280;10047;42.490;26.012;2023-01-19T04:41:48;99716.03;;;13.71;100.00
19777;BME280;10047;42.490;26.012;2023-01-19T04:44:13;99744.59;;;13.80;100.00
19777;BME280;10047;42.490;26.012;2023-01-19T04:46:38;99688.50;;;13.40;100.00
19777;BME280;10047;42.490;26.012;2023-01-19T04:49:05;99704.94;;;13.53;100.00
19777;BME280;10047;42.490;26.012;2023-01-19T04:51:30;99735.25;;;13.79;100.00
19777;BME280;10047;42.490;26.012;2023-01-19T04:53:56;99737.06;;;13.77;100.00
19777;BME280;10047;42.490;26.012;2023-01-19T04:56:22;99739.88;;;13.90;100.00
19777;BME280;10047;42.490;26.012;2023-01-19T04:58:47;99727.16;;;13.88;100.00
19777;BME280;10047;42.490;26.012;2023-01-19T05:01:13;99716.88;;;13.90;100.00
19777;BME280;10047;42.490;26.012;2023-01-19T05:03:38;99738.78;;;13.96;100.00
19777;BME280;10047;42.490;26.012;2023-01-19T05:06:04;99680.06;;;13.57;100.00
19777;BME280;10047;42.490;26.012;2023-01-19T05:08:30;99740.78;;;13.89;100.00
19777;BME280;10047;42.490;26.012;2023-01-19T05:10:56;99673.66;;;13.67;100.00
19777;BME280;10047;42.490;26.012;2023-01-19T05:13:22;99735.66;;;14.08;100.00
19777;BME280;10047;42.490;26.012;2023-01-19T05:15:47;99652.69;;;13.60;100.00
19777;BME280;10047;42.490;26.012;2023-01-19T05:18:13;99710.31;;;14.03;100.00
19777;BME280;10047;42.490;26.012;2023-01-19T05:20:38;99744.84;;;14.12;100.00
19777;BME280;10047;42.490;26.012;2023-01-19T05:23:04;99728.19;;;14.03;100.00
19777;BME280;10047;42.490;26.012;2023-01-19T05:25:29;99752.44;;;14.13;100.00
19777;BME280;10047;42.490;26.012;2023-01-19T05:27:55;99679.53;;;13.69;100.00
19777;BME280;10047;42.490;26.012;2023-01-19T05:30:20;99704.19;;;13.70;100.00
19777;BME280;10047;42.490;26.012;2023-01-19T05:32:45;99705.19;;;13.84;100.00
19777;BME280;10047;42.490;26.012;2023-01-19T05:35:11;99749.19;;;14.10;100.00
19777;BME280;10047;42.490;26.012;2023-01-19T05:37:37;99686.69;;;13.79;100.00
19777;BME280;10047;42.490;26.012;2023-01-19T05:40:04;99760.19;;;14.12;100.00
19777;BME280;10047;42.490;26.012;2023-01-19T05:42:29;99693.00;;;13.72;100.00
19777;BME280;10047;42.490;26.012;2023-01-19T05:44:55;99744.50;;;14.01;100.00
19777;BME280;10047;42.490;26.012;2023-01-19T05:47:20;99757.84;;;14.07;100.00
19777;BME280;10047;42.490;26.012;2023-01-19T05:49:47;99751.06;;;14.06;100.00
19777;BME280;10047;42.490;26.012;2023-01-19T05:52:12;99758.38;;;13.95;100.00
19777;BME280;10047;42.490;26.012;2023-01-19T05:54:37;99679.94;;;13.60;100.00
19777;BME280;10047;42.490;26.012;2023-01-19T05:57:05;99769.09;;;14.03;100.00
19777;BME280;10047;42.490;26.012;2023-01-19T05:59:30;99750.03;;;14.10;100.00
19777;BME280;10047;42.490;26.012;2023-01-19T06:01:56;99738.22;;;14.08;100.00
19777;BME280;10047;42.490;26.012;2023-01-19T06:04:21;99693.53;;;13.79;100.00
19777;BME280;10047;42.490;26.012;2023-01-19T06:06:47;99774.78;;;14.10;100.00
19777;BME280;10047;42.490;26.012;2023-01-19T06:09:13;99755.97;;;14.11;100.00
19777;BME280;10047;42.490;26.012;2023-01-19T06:11:38;99702.66;;;13.66;100.00
19777;BME280;10047;42.490;26.012;2023-01-19T06:14:04;99700.03;;;13.67;100.00
19777;BME280;10047;42.490;26.012;2023-01-19T06:16:29;99773.22;;;14.24;100.00
19777;BME280;10047;42.490;26.012;2023-01-19T06:18:55;99716.53;;;13.79;100.00
19777;BME280;10047;42.490;26.012;2023-01-19T06:21:20;99667.59;;;13.51;100.00
19777;BME280;10047;42.490;26.012;2023-01-19T06:23:46;99793.00;;;14.21;100.00
19777;BME280;10047;42.490;26.012;2023-01-19T06:26:11;99794.09;;;14.15;100.00
19777;BME280;10047;42.490;26.012;2023-01-19T06:28:37;99726.06;;;13.75;100.00
19777;BME280;10047;42.490;26.012;2023-01-19T06:31:03;99811.75;;;14.40;100.00
19777;BME280;10047;42.490;26.012;2023-01-19T06:33:29;99827.50;;;14.49;100.00
19777;BME280;10047;42.490;26.012;2023-01-19T06:35:55;99756.81;;;14.30;100.00
19777;BME280;10047;42.490;26.012;2023-01-19T06:38:21;99813.28;;;14.97;100.00
19777;BME280;10047;42.490;26.012;2023-01-19T06:40:56;99845.81;;;15.12;100.00
19777;BME280;10047;42.490;26.012;2023-01-19T06:43:27;99760.97;;;14.85;100.00
19777;BME280;10047;42.490;26.012;2023-01-19T06:45:53;99817.78;;;15.26;100.00
19777;BME280;10047;42.490;26.012;2023-01-19T06:48:19;99770.91;;;14.91;100.00
19777;BME280;10047;42.490;26.012;2023-01-19T06:50:46;99763.16;;;15.25;100.00
19777;BME280;10047;42.490;26.012;2023-01-19T06:53:12;99840.47;;;16.00;100.00
19777;BME280;10047;42.490;26.012;2023-01-19T06:55:37;99831.84;;;15.86;100.00
19777;BME280;10047;42.490;26.012;2023-01-19T06:58:03;99827.00;;;16.28;100.00
19777;BME280;10047;42.490;26.012;2023-01-19T07:00:29;99807.56;;;16.39;100.00
19777;BME280;10047;42.490;26.012;2023-01-19T07:02:55;99808.78;;;16.48;100.00
19777;BME280;10047;42.490;26.012;2023-01-19T07:05:20;99810.56;;;16.32;100.00
19777;BME280;10047;42.490;26.012;2023-01-19T07:07:53;99815.34;;;16.69;100.00
19777;BME280;10047;42.490;26.012;2023-01-19T07:10:20;99748.78;;;16.51;100.00
19777;BME280;10047;42.490;26.012;2023-01-19T07:12:46;99808.91;;;16.92;100.00
19777;BME280;10047;42.490;26.012;2023-01-19T07:15:13;99826.47;;;16.99;100.00
19777;BME280;10047;42.490;26.012;2023-01-19T07:17:39;99794.28;;;17.08;100.00
19777;BME280;10047;42.490;26.012;2023-01-19T07:20:09;99820.25;;;17.17;100.00
19777;BME280;10047;42.490;26.012;2023-01-19T07:22:37;99727.88;;;15.96;100.00
19777;BME280;10047;42.490;26.012;2023-01-19T07:25:04;99741.34;;;15.68;100.00
19777;BME280;10047;42.490;26.012;2023-01-19T07:27:30;99786.78;;;15.97;100.00
19777;BME280;10047;42.490;26.012;2023-01-19T07:29:55;99762.53;;;15.87;100.00
19777;BME280;10047;42.490;26.012;2023-01-19T07:32:21;99804.56;;;16.00;100.00
19777;BME280;10047;42.490;26.012;2023-01-19T07:34:46;99795.38;;;15.96;100.00
19777;BME280;10047;42.490;26.012;2023-01-19T07:37:11;99775.94;;;15.92;100.00
19777;BME280;10047;42.490;26.012;2023-01-19T07:39:37;99776.84;;;15.91;100.00
19777;BME280;10047;42.490;26.012;2023-01-19T07:42:03;99825.66;;;16.21;100.00
19777;BME280;10047;42.490;26.012;2023-01-19T07:44:28;99788.59;;;16.11;100.00
19777;BME280;10047;42.490;26.012;2023-01-19T07:46:54;99855.47;;;16.39;100.00
19777;BME280;10047;42.490;26.012;2023-01-19T07:49:23;99795.31;;;16.13;100.00
19777;BME280;10047;42.490;26.012;2023-01-19T07:51:48;99801.94;;;16.17;100.00
19777;BME280;10047;42.490;26.012;2023-01-19T07:54:14;99764.28;;;16.02;100.00
19777;BME280;10047;42.490;26.012;2023-01-19T07:56:39;99852.47;;;16.64;100.00
19777;BME280;10047;42.490;26.012;2023-01-19T07:59:06;99859.47;;;16.76;100.00
19777;BME280;10047;42.490;26.012;2023-01-19T08:01:33;99866.44;;;16.74;100.00
19777;BME280;10047;42.490;26.012;2023-01-19T08:03:59;99807.47;;;16.41;100.00
19777;BME280;10047;42.490;26.012;2023-01-19T08:06:29;99868.25;;;16.87;100.00
19777;BME280;10047;42.490;26.012;2023-01-19T08:08:56;99857.63;;;16.78;100.00
19777;BME280;10047;42.490;26.012;2023-01-19T08:11:22;99883.81;;;16.84;100.00
19777;BME280;10047;42.490;26.012;2023-01-19T08:13:47;99862.94;;;16.90;100.00
19777;BME280;10047;42.490;26.012;2023-01-19T08:16:12;99888.59;;;17.06;100.00
19777;BME280;10047;42.490;26.012;2023-01-19T08:18:38;99870.38;;;16.95;100.00
19777;BME280;10047;42.490;26.012;2023-01-19T08:21:04;99890.13;;;17.24;100.00
19777;BME280;10047;42.490;26.012;2023-01-19T08:23:29;99850.94;;;16.91;100.00
19777;BME280;10047;42.490;26.012;2023-01-19T08:25:54;99846.53;;;16.93;100.00
19777;BME280;10047;42.490;26.012;2023-01-19T08:28:20;99918.88;;;17.30;100.00
19777;BME280;10047;42.490;26.012;2023-01-19T08:30:45;99925.44;;;17.20;100.00
19777;BME280;10047;42.490;26.012;2023-01-19T08:33:18;99917.50;;;17.25;100.00
19777;BME280;10047;42.490;26.012;2023-01-19T08:35:47;99906.19;;;17.27;100.00
19777;BME280;10047;42.490;26.012;2023-01-19T08:38:13;99890.56;;;17.16;100.00
19777;BME280;10047;42.490;26.012;2023-01-19T08:40:40;99872.00;;;17.11;100.00
19777;BME280;10047;42.490;26.012;2023-01-19T08:43:11;99857.59;;;17.09;100.00
19777;BME280;10047;42.490;26.012;2023-01-19T08:45:39;99793.41;;;16.64;100.00
19777;BME280;10047;42.490;26.012;2023-01-19T08:48:09;99837.69;;;17.12;100.00
19777;BME280;10047;42.490;26.012;2023-01-19T08:50:34;99901.59;;;17.48;100.00
19777;BME280;10047;42.490;26.012;2023-01-19T08:53:01;99872.81;;;17.12;100.00
19777;BME280;10047;42.490;26.012;2023-01-19T08:55:28;99914.38;;;17.50;100.00
19777;BME280;10047;42.490;26.012;2023-01-19T08:57:55;99856.22;;;17.17;100.00
19777;BME280;10047;42.490;26.012;2023-01-19T09:00:28;99925.63;;;17.63;100.00
19777;BME280;10047;42.490;26.012;2023-01-19T09:02:56;99934.44;;;17.73;100.00
19777;BME280;10047;42.490;26.012;2023-01-19T09:05:22;99902.19;;;17.67;100.00
19777;BME280;10047;42.490;26.012;2023-01-19T09:07:48;99914.75;;;17.58;100.00
19777;BME280;10047;42.490;26.012;2023-01-19T09:10:14;99855.53;;;17.29;100.00
19777;BME280;10047;42.490;26.012;2023-01-19T09:12:40;99847.09;;;17.27;100.00
19777;BME280;10047;42.490;26.012;2023-01-19T09:15:06;99904.88;;;17.66;100.00
19777;BME280;10047;42.490;26.012;2023-01-19T09:17:32;99852.00;;;17.46;100.00
19777;BME280;10047;42.490;26.012;2023-01-19T09:19:57;99908.38;;;17.79;100.00
19777;BME280;10047;42.490;26.012;2023-01-19T09:22:23;99885.13;;;17.66;100.00
19777;BME280;10047;42.490;26.012;2023-01-19T09:24:49;99850.16;;;17.48;100.00
19777;BME280;10047;42.490;26.012;2023-01-19T09:27:14;99855.63;;;17.58;100.00
19777;BME280;10047;42.490;26.012;2023-01-19T09:29:40;99926.38;;;17.93;100.00
19777;BME280;10047;42.490;26.012;2023-01-19T09:32:07;99915.84;;;17.97;100.00
19777;BME280;10047;42.490;26.012;2023-01-19T09:34:35;99929.72;;;17.95;100.00
19777;BME280;10047;42.490;26.012;2023-01-19T09:37:00;99863.09;;;17.62;100.00
19777;BME280;10047;42.490;26.012;2023-01-19T09:39:26;99905.81;;;18.07;100.00
19777;BME280;10047;42.490;26.012;2023-01-19T09:44:43;99906.94;;;18.17;100.00
19777;BME280;10047;42.490;26.012;2023-01-19T09:47:16;99901.41;;;18.09;100.00
19777;BME280;10047;42.490;26.012;2023-01-19T09:49:48;99909.47;;;17.89;100.00
19777;BME280;10047;42.490;26.012;2023-01-19T09:52:16;99908.75;;;18.15;100.00
19777;BME280;10047;42.490;26.012;2023-01-19T09:54:50;99919.63;;;18.20;100.00
19777;BME280;10047;42.490;26.012;2023-01-19T09:57:17;99834.34;;;17.70;100.00
19777;BME280;10047;42.490;26.012;2023-01-19T09:59:43;99832.63;;;17.84;100.00
19777;BME280;10047;42.490;26.012;2023-01-19T10:08:15;99888.31;;;18.68;100.00
19777;BME280;10047;42.490;26.012;2023-01-19T10:10:47;99849.41;;;18.04;100.00
19777;BME280;10047;42.490;26.012;2023-01-19T10:13:47;99874.22;;;18.47;100.00
19777;BME280;10047;42.490;26.012;2023-01-19T10:16:40;99877.78;;;18.45;100.00
19777;BME280;10047;42.490;26.012;2023-01-19T10:19:25;99870.59;;;18.64;100.00
19777;BME280;10047;42.490;26.012;2023-01-19T10:21:52;99834.22;;;18.28;100.00
19777;BME280;10047;42.490;26.012;2023-01-19T10:24:30;99866.38;;;18.49;100.00
19777;BME280;10047;42.490;26.012;2023-01-19T10:26:57;99811.88;;;18.28;100.00
19777;BME280;10047;42.490;26.012;2023-01-19T10:29:36;99777.69;;;18.26;100.00
19777;BME280;10047;42.490;26.012;2023-01-19T10:34:41;99842.00;;;18.54;100.00
19777;BME280;10047;42.490;26.012;2023-01-19T10:39:43;99795.00;;;18.51;100.00
19777;BME280;10047;42.490;26.012;2023-01-19T10:42:12;99770.63;;;18.15;100.00
19777;BME280;10047;42.490;26.012;2023-01-19T10:44:40;99841.84;;;18.70;100.00
19777;BME280;10047;42.490;26.012;2023-01-19T10:47:14;99857.03;;;18.74;100.00
19777;BME280;10047;42.490;26.012;2023-01-19T10:49:40;99840.69;;;18.61;100.00
19777;BME280;10047;42.490;26.012;2023-01-19T10:52:37;99837.75;;;18.67;100.00
19777;BME280;10047;42.490;26.012;2023-01-19T10:55:06;99792.47;;;18.23;100.00
19777;BME280;10047;42.490;26.012;2023-01-19T10:57:36;99789.75;;;18.11;100.00
19777;BME280;10047;42.490;26.012;2023-01-19T11:00:12;99765.59;;;18.14;100.00
19777;BME280;10047;42.490;26.012;2023-01-19T11:02:51;99856.31;;;18.58;100.00
19777;BME280;10047;42.490;26.012;2023-01-19T11:07:47;99815.56;;;18.65;100.00
19777;BME280;10047;42.490;26.012;2023-01-19T11:12:45;99775.63;;;18.45;100.00
19777;BME280;10047;42.490;26.012;2023-01-19T11:15:20;99851.41;;;18.68;100.00
19777;BME280;10047;42.490;26.012;2023-01-19T11:17:46;99836.22;;;18.77;100.00
19777;BME280;10047;42.490;26.012;2023-01-19T11:20:30;99780.13;;;18.42;100.00
19777;BME280;10047;42.490;26.012;2023-01-19T11:23:07;99832.47;;;18.69;100.00
19777;BME280;10047;42.490;26.012;2023-01-19T11:25:44;99836.63;;;18.71;100.00
19777;BME280;10047;42.490;26.012;2023-01-19T11:28:23;99818.66;;;18.70;100.00
19777;BME280;10047;42.490;26.012;2023-01-19T11:33:40;99752.13;;;18.76;100.00
19777;BME280;10047;42.490;26.012;2023-01-19T11:38:44;99787.41;;;18.49;100.00
19777;BME280;10047;42.490;26.012;2023-01-19T11:41:29;99807.56;;;18.69;100.00
19777;BME280;10047;42.490;26.012;2023-01-19T11:44:13;99820.94;;;18.62;100.00
19777;BME280;10047;42.490;26.012;2023-01-19T11:46:43;99811.38;;;18.76;100.00
19777;BME280;10047;42.490;26.012;2023-01-19T11:49:20;99814.56;;;18.67;100.00
19777;BME280;10047;42.490;26.012;2023-01-19T11:54:19;99697.03;;;18.13;100.00
19777;BME280;10047;42.490;26.012;2023-01-19T11:56:49;99801.38;;;18.72;100.00
19777;BME280;10047;42.490;26.012;2023-01-19T11:59:16;99757.72;;;18.30;100.00
19777;BME280;10047;42.490;26.012;2023-01-19T12:01:48;99798.50;;;18.76;100.00
19777;BME280;10047;42.490;26.012;2023-01-19T12:04:34;99778.84;;;18.49;100.00
19777;BME280;10047;42.490;26.012;2023-01-19T12:07:04;99819.34;;;18.86;100.00
19777;BME280;10047;42.490;26.012;2023-01-19T12:09:37;99805.72;;;18.71;100.00
19777;BME280;10047;42.490;26.012;2023-01-19T12:12:11;99770.09;;;18.51;100.00
19777;BME280;10047;42.490;26.012;2023-01-19T12:14:56;99820.78;;;18.90;100.00
19777;BME280;10047;42.490;26.012;2023-01-19T12:17:29;99758.44;;;18.46;100.00
19777;BME280;10047;42.490;26.012;2023-01-19T12:20:03;99818.97;;;18.65;100.00
19777;BME280;10047;42.490;26.012;2023-01-19T12:22:36;99825.00;;;18.78;100.00
19777;BME280;10047;42.490;26.012;2023-01-19T12:25:28;99808.41;;;18.82;100.00
19777;BME280;10047;42.490;26.012;2023-01-19T12:27:56;99825.16;;;18.89;100.00
19777;BME280;10047;42.490;26.012;2023-01-19T12:30:25;99824.50;;;18.86;100.00
19777;BME280;10047;42.490;26.012;2023-01-19T12:39:00;99823.03;;;18.82;100.00
19777;BME280;10047;42.490;26.012;2023-01-19T12:47:38;99831.16;;;18.76;100.00
19777;BME280;10047;42.490;26.012;2023-01-19T12:49:56;99778.44;;;18.28;100.00
19777;BME280;10047;42.490;26.012;2023-01-19T12:52:35;99830.81;;;18.68;100.00
19777;BME280;10047;42.490;26.012;2023-01-19T13:00:07;99834.75;;;18.47;100.00
19777;BME280;10047;42.490;26.012;2023-01-19T13:03:02;99851.75;;;18.76;100.00
19777;BME280;10047;42.490;26.012;2023-01-19T13:13:17;99781.72;;;18.30;100.00
19777;BME280;10047;42.490;26.012;2023-01-19T13:15:43;99854.34;;;18.76;100.00
19777;BME280;10047;42.490;26.012;2023-01-19T13:18:15;99790.75;;;18.23;100.00
19777;BME280;10047;42.490;26.012;2023-01-19T13:21:05;99860.94;;;18.53;100.00
19777;BME280;10047;42.490;26.012;2023-01-19T13:26:16;99849.56;;;18.29;100.00
19777;BME280;10047;42.490;26.012;2023-01-19T13:28:44;99849.38;;;18.32;100.00
19777;BME280;10047;42.490;26.012;2023-01-19T13:31:11;99767.47;;;17.70;100.00
19777;BME280;10047;42.490;26.012;2023-01-19T13:33:49;99849.47;;;18.16;100.00
19777;BME280;10047;42.490;26.012;2023-01-19T13:36:22;99858.13;;;18.15;100.00
19777;BME280;10047;42.490;26.012;2023-01-19T13:38:51;99779.50;;;17.69;100.00
19777;BME280;10047;42.490;26.012;2023-01-19T13:41:20;99833.25;;;17.88;100.00
19777;BME280;10047;42.490;26.012;2023-01-19T13:43:57;99773.72;;;17.66;100.00
19777;BME280;10047;42.490;26.012;2023-01-19T13:46:24;99833.88;;;17.77;100.00
19777;BME280;10047;42.490;26.012;2023-01-19T13:48:56;99822.13;;;17.73;100.00
19777;BME280;10047;42.490;26.012;2023-01-19T13:51:23;99776.16;;;17.39;100.00
19777;BME280;10047;42.490;26.012;2023-01-19T13:53:53;99768.00;;;17.32;100.00
19777;BME280;10047;42.490;26.012;2023-01-19T13:56:20;99670.41;;;16.75;100.00
19777;BME280;10047;42.490;26.012;2023-01-19T14:01:35;99806.25;;;17.53;100.00
19777;BME280;10047;42.490;26.012;2023-01-19T14:04:01;99815.69;;;17.52;100.00
19777;BME280;10047;42.490;26.012;2023-01-19T14:11:43;99834.28;;;17.42;100.00